Wheeler, Indiana
Current Conditions -  °F | °C
As of 11:56 PM on Sunday 25 Jan 2015 (Local Time) from KVPZ Reporting Station
Clear Clear  
Wind Chill: -13°   Ceiling: Unl
Heat Index: -8°   Visibility: 10mi
Dew Point: -11°   Wind: 7mph
Humidity: 78%   Direction: 30°NNE
Pressure: 29.95"   Gusts: NA
Location:  41.51°N, 87.18°W
Report Text: KVPZ 260556Z AUTO 03006KT 10SM CLR M08/M11 A2995 RMK AO2 SLP153 60000 T10781111 11039 21078 400111078 50003 TSNO
Loading
Personal Weather Stations






























Interactive Weather Map New forecast layout! Learn more

10-Day Weather Forecast

Advertisements
Track Severe Weather on mobile